South Kearny, New Jersey
Current Conditions -  °F | °C
As of 6:51 PM on Wednesday 26 Nov 2014 (Local Time) from KEWR Reporting Station
Light Rain Light Rain  
Wind Chill: 24°   Ceiling: 700
Heat Index: 35°   Visibility: 3mi
Dew Point: 34°   Wind: 18mph
Humidity: 96%   Direction: 340°NNW
Pressure: 29.8"   Gusts: 25mph
Location:  40.7563°N, 74.1217°W
Report Text: KEWR 262351Z 34016G22KT 3SM -RA BR BKN007 BKN013 OVC023 02/01 A2980 RMK AO2 SFC VIS 5 SLP091 931005 4/001 P0002 60037 T00170011 10017 20006 56011
Loading
Personal Weather Stations






























Interactive Weather Map New forecast layout! Learn more

10-Day Weather Forecast

Advertisements
Track Severe Weather on mobile